createdAt,value
2022-08-26T00:01:57.908Z,69.8
2022-08-26T00:13:57.872Z,74.6
2022-08-26T00:25:57.852Z,79.2
2022-08-26T00:37:57.861Z,79.0
2022-08-26T00:49:57.859Z,81.5
2022-08-26T01:01:57.935Z,80.3
2022-08-26T01:13:57.907Z,87.0
2022-08-26T01:25:57.865Z,83.3
2022-08-26T01:37:57.860Z,75.9
2022-08-26T01:49:57.874Z,75.5
2022-08-26T02:01:57.964Z,75.1
2022-08-26T02:13:57.843Z,74.9
2022-08-26T02:25:57.880Z,76.1
2022-08-26T02:37:57.936Z,79.6
2022-08-26T02:49:57.889Z,81.6
2022-08-26T03:01:57.904Z,84.6
2022-08-26T03:13:57.859Z,86.4
2022-08-26T03:25:57.842Z,89.2
2022-08-26T03:37:57.817Z,90.9
2022-08-26T03:49:57.880Z,92.1
2022-08-26T04:01:57.896Z,94.4
2022-08-26T04:13:57.861Z,95.5
2022-08-26T04:25:57.841Z,98.1
2022-08-26T04:37:58.158Z,99.0
2022-08-26T04:49:57.872Z,99.0
2022-08-26T05:01:57.935Z,99.0
2022-08-26T05:14:01.648Z,99.0
2022-08-26T05:26:00.341Z,97.1
2022-08-26T05:37:57.844Z,95.7
2022-08-26T05:49:57.870Z,94.6
2022-08-26T06:01:57.875Z,92.8
2022-08-26T06:14:02.571Z,92.0
2022-08-26T06:25:57.856Z,90.8
2022-08-26T06:37:57.870Z,88.7
2022-08-26T06:49:57.873Z,85.9
2022-08-26T07:01:59.035Z,85.7
2022-08-26T07:13:57.858Z,84.9
2022-08-26T07:25:57.859Z,82.8
2022-08-26T07:37:57.863Z,79.7
2022-08-26T07:49:57.905Z,76.7
2022-08-26T08:01:57.928Z,75.2
2022-08-26T08:13:57.855Z,73.3
2022-08-26T08:25:57.836Z,71.8
2022-08-26T08:37:57.865Z,69.8
2022-08-26T08:49:57.865Z,62.9
2022-08-26T09:01:57.893Z,62.4
2022-08-26T09:13:57.838Z,61.0
2022-08-26T09:25:57.857Z,57.7
2022-08-26T09:37:57.874Z,56.7
2022-08-26T09:49:58.178Z,56.8
2022-08-26T10:01:57.951Z,53.3
2022-08-26T10:13:57.877Z,53.6
2022-08-26T10:25:57.979Z,53.8
2022-08-26T10:37:57.881Z,53.9
2022-08-26T10:50:03.036Z,54.0
2022-08-26T11:01:58.658Z,53.7
2022-08-26T11:13:58.237Z,53.6
2022-08-26T11:25:58.455Z,53.4
2022-08-26T11:37:57.958Z,54.2
2022-08-26T11:49:58.088Z,54.7
2022-08-26T12:01:57.921Z,55.5
2022-08-26T12:13:58.011Z,54.9
2022-08-26T12:25:58.351Z,56.9
2022-08-26T12:37:58.980Z,55.9
2022-08-26T12:49:58.829Z,54.1
2022-08-26T13:01:58.424Z,58.1
2022-08-26T13:13:58.201Z,57.1
2022-08-26T13:25:58.041Z,57.4
2022-08-26T13:37:57.927Z,57.7
2022-08-26T13:49:57.840Z,57.5
2022-08-26T14:01:57.867Z,58.3
2022-08-26T14:13:57.819Z,56.2
2022-08-26T14:25:57.835Z,63.0
2022-08-26T14:37:57.885Z,58.4
2022-08-26T14:49:57.847Z,58.9
2022-08-26T15:01:57.949Z,64.5
2022-08-26T15:13:57.864Z,63.5
2022-08-26T15:25:57.875Z,71.1
2022-08-26T15:37:57.857Z,72.4
2022-08-26T15:49:57.888Z,71.2
2022-08-26T16:01:57.904Z,72.4
2022-08-26T16:13:57.882Z,74.6
2022-08-26T16:25:57.865Z,74.9
2022-08-26T16:37:57.842Z,74.4
2022-08-26T16:49:57.884Z,74.0
2022-08-26T17:01:57.981Z,76.1
2022-08-26T17:13:58.218Z,77.3
2022-08-26T17:25:57.875Z,78.7
2022-08-26T17:37:57.863Z,79.4
2022-08-26T17:49:57.883Z,80.5
2022-08-26T18:01:57.907Z,81.7
2022-08-26T18:13:57.861Z,82.3
2022-08-26T18:25:57.853Z,83.0
2022-08-26T18:37:57.900Z,83.6
2022-08-26T18:49:57.845Z,83.8
2022-08-26T19:01:58.057Z,83.6
2022-08-26T19:13:57.860Z,83.7
2022-08-26T19:25:57.849Z,84.8
2022-08-26T19:37:57.828Z,85.1
2022-08-26T19:49:57.862Z,85.6
2022-08-26T20:02:01.462Z,88.1
2022-08-26T20:13:57.851Z,89.2
2022-08-26T20:25:57.856Z,90.3
2022-08-26T20:37:57.866Z,89.9
2022-08-26T20:49:57.913Z,89.2
2022-08-26T21:01:57.862Z,88.6
2022-08-26T21:14:07.135Z,88.3
2022-08-26T21:25:57.861Z,87.3
2022-08-26T21:37:57.859Z,86.7
2022-08-26T21:49:57.867Z,86.9
2022-08-26T22:01:57.936Z,87.3
2022-08-26T22:13:57.859Z,87.8
2022-08-26T22:25:57.867Z,88.6
2022-08-26T22:37:57.870Z,89.8
2022-08-26T22:49:57.880Z,90.1
2022-08-26T23:01:57.867Z,90.0
2022-08-26T23:13:57.846Z,90.2
2022-08-26T23:25:57.860Z,90.6
2022-08-26T23:37:59.050Z,90.6
2022-08-26T23:49:57.864Z,90.9
